Time;durP1;ratioP1;P1;durP2;ratioP2;P2;SDS_P1;SDS_P2;PMS_P1;PMS_P2;Temp;Humidity;BMP_temperature;BMP_pressure;BME280_temperature;BME280_humidity;BME280_pressure;Samples;Min_cycle;Max_cycle;Signal;HPM_P1;HPM_P2
2022/05/12 00:01:23;;;;;;;1.63;1.60;;;;;;;;;;4952624;28;20207;-60
2022/05/12 00:03:50;;;;;;;1.38;1.27;;;;;;;;;;4959734;28;20475;-60
2022/05/12 00:06:19;;;;;;;4.28;1.58;;;;;;;;;;4956284;28;20593;-60
2022/05/12 00:08:46;;;;;;;2.13;1.45;;;;;;;;;;4956859;28;20261;-60
2022/05/12 00:11:13;;;;;;;1.25;1.25;;;;;;;;;;4956509;28;20264;-60
2022/05/12 00:13:40;;;;;;;1.45;1.45;;;;;;;;;;4955074;28;20262;-60
2022/05/12 00:16:08;;;;;;;1.40;1.40;;;;;;;;;;4957499;28;20684;-60
2022/05/12 00:18:35;;;;;;;1.80;1.73;;;;;;;;;;4959689;28;20207;-60
2022/05/12 00:21:02;;;;;;;1.55;1.50;;;;;;;;;;4958362;28;20265;-60
2022/05/12 00:23:30;;;;;;;1.52;1.48;;;;;;;;;;4955375;28;20227;-60
2022/05/12 00:25:57;;;;;;;1.45;1.38;;;;;;;;;;4959262;28;20584;-60
2022/05/12 00:28:26;;;;;;;1.60;1.50;;;;;;;;;;4956098;28;20257;-60
2022/05/12 00:30:54;;;;;;;1.45;1.35;;;;;;;;;;4957501;28;20211;-60
2022/05/12 00:33:25;;;;;;;1.30;1.30;;;;;;;;;;4962123;28;20732;-60
2022/05/12 00:35:52;;;;;;;1.20;1.20;;;;;;;;;;4962579;28;20703;-60
2022/05/12 00:38:19;;;;;;;1.58;1.48;;;;;;;;;;4961511;28;20210;-60
2022/05/12 00:40:47;;;;;;;3.92;1.38;;;;;;;;;;4959826;28;20206;-60
2022/05/12 00:43:29;;;;;;;1.52;1.42;;;;;;;;;;4961728;28;20281;-60
2022/05/12 00:45:56;;;;;;;1.00;0.98;;;;;;;;;;4961757;28;20624;-61
2022/05/12 00:48:23;;;;;;;1.55;1.35;;;;;;;;;;4961023;28;20269;-60
2022/05/12 00:50:50;;;;;;;2.40;1.40;;;;;;;;;;4960227;28;20214;-60
2022/05/12 00:53:18;;;;;;;1.38;1.38;;;;;;;;;;4962388;28;20206;-60
2022/05/12 00:55:46;;;;;;;2.83;1.40;;;;;;;;;;4959226;28;20202;-60
2022/05/12 00:58:17;;;;;;;1.33;1.33;;;;;;;;;;4959294;28;20211;-60
2022/05/12 01:00:44;;;;;;;3.10;1.13;;;;;;;;;;4961385;28;20746;-60
2022/05/12 01:03:13;;;;;;;1.00;1.00;;;;;;;;;;4959385;28;20203;-60
2022/05/12 01:05:41;;;;;;;1.77;1.20;;;;;;;;;;4952520;29;20640;-60
2022/05/12 01:08:10;;;;;;;1.17;1.17;;;;;;;;;;4952641;29;20309;-61
2022/05/12 01:10:39;;;;;;;1.20;1.20;;;;;;;;;;4951452;29;20235;-61
2022/05/12 01:13:06;;;;;;;1.20;1.20;;;;;;;;;;4950058;29;20211;-61
2022/05/12 01:15:34;;;;;;;1.95;1.20;;;;;;;;;;4951106;29;20211;-61
2022/05/12 01:18:02;;;;;;;1.88;1.13;;;;;;;;;;4951573;29;20257;-61
2022/05/12 01:20:29;;;;;;;1.08;1.00;;;;;;;;;;4951512;29;20332;-61
2022/05/12 01:22:58;;;;;;;1.42;1.30;;;;;;;;;;4951615;29;20235;-61
2022/05/12 01:25:28;;;;;;;1.02;1.02;;;;;;;;;;4951674;29;20282;-61
2022/05/12 01:27:56;;;;;;;1.35;1.08;;;;;;;;;;4951824;28;20222;-63
2022/05/12 01:30:24;;;;;;;1.10;1.10;;;;;;;;;;4952329;29;20207;-61
2022/05/12 01:32:51;;;;;;;1.30;1.23;;;;;;;;;;4951277;29;20682;-61
2022/05/12 01:35:19;;;;;;;1.00;1.00;;;;;;;;;;4951346;29;20286;-60
2022/05/12 01:37:47;;;;;;;2.05;1.20;;;;;;;;;;4951368;29;20234;-61
2022/05/12 01:40:15;;;;;;;1.02;1.02;;;;;;;;;;4948370;28;20215;-61
2022/05/12 01:42:44;;;;;;;1.20;1.20;;;;;;;;;;4947231;28;20211;-61
2022/05/12 01:45:12;;;;;;;1.20;1.17;;;;;;;;;;4950783;28;20245;-61
2022/05/12 01:47:40;;;;;;;0.90;0.90;;;;;;;;;;4950890;29;20293;-61
2022/05/12 01:50:09;;;;;;;1.52;1.00;;;;;;;;;;4951121;29;20352;-61
2022/05/12 01:52:36;;;;;;;0.93;0.93;;;;;;;;;;4950713;28;20215;-61
2022/05/12 01:55:04;;;;;;;2.50;1.02;;;;;;;;;;4951876;29;20262;-61
2022/05/12 01:57:31;;;;;;;1.38;0.95;;;;;;;;;;4950923;28;20211;-61
2022/05/12 01:59:59;;;;;;;1.02;1.00;;;;;;;;;;4947756;29;20252;-61
2022/05/12 02:02:28;;;;;;;1.63;1.23;;;;;;;;;;4950621;29;20211;-61
2022/05/12 02:04:55;;;;;;;2.90;0.85;;;;;;;;;;4953376;28;20226;-61
2022/05/12 02:07:22;;;;;;;1.17;0.98;;;;;;;;;;4952910;28;20235;-61
2022/05/12 02:09:49;;;;;;;0.90;0.90;;;;;;;;;;4951156;29;20289;-61
2022/05/12 02:12:16;;;;;;;1.00;1.00;;;;;;;;;;4950453;29;20233;-61
2022/05/12 02:14:43;;;;;;;1.25;1.10;;;;;;;;;;4947665;29;20207;-61
2022/05/12 02:17:12;;;;;;;1.55;0.88;;;;;;;;;;4950405;29;20266;-61
2022/05/12 02:19:39;;;;;;;0.77;0.77;;;;;;;;;;4946410;29;20207;-61
2022/05/12 02:22:06;;;;;;;0.80;0.80;;;;;;;;;;4949881;29;20207;-61
2022/05/12 02:24:33;;;;;;;1.85;1.08;;;;;;;;;;4949440;29;20230;-61
2022/05/12 02:27:00;;;;;;;0.70;0.70;;;;;;;;;;4950165;28;20262;-61
2022/05/12 02:29:27;;;;;;;0.80;0.80;;;;;;;;;;4949870;29;20278;-61
2022/05/12 02:31:54;;;;;;;1.00;1.00;;;;;;;;;;4949170;29;20207;-61
2022/05/12 02:34:23;;;;;;;1.35;1.02;;;;;;;;;;4950515;29;20912;-61
2022/05/12 02:37:00;;;;;;;1.08;1.08;;;;;;;;;;4949580;29;20218;-61
2022/05/12 02:39:28;;;;;;;0.75;0.75;;;;;;;;;;4950839;29;20290;-61
2022/05/12 02:41:55;;;;;;;0.85;0.85;;;;;;;;;;4949491;29;20303;-61
2022/05/12 02:44:22;;;;;;;0.70;0.70;;;;;;;;;;4949918;29;20227;-61
2022/05/12 02:46:49;;;;;;;0.80;0.80;;;;;;;;;;4950074;29;20258;-61
2022/05/12 02:49:16;;;;;;;0.88;0.88;;;;;;;;;;4949864;29;20211;-61
2022/05/12 02:51:44;;;;;;;0.88;0.88;;;;;;;;;;4950069;29;20251;-60
2022/05/12 02:54:12;;;;;;;0.95;0.95;;;;;;;;;;4949970;28;20670;-61
2022/05/12 02:56:39;;;;;;;0.93;0.93;;;;;;;;;;4949914;28;20215;-60
2022/05/12 02:59:06;;;;;;;1.20;1.15;;;;;;;;;;4950073;29;20215;-60
2022/05/12 03:01:34;;;;;;;1.40;0.70;;;;;;;;;;4948730;29;20211;-60
2022/05/12 03:04:01;;;;;;;1.00;1.00;;;;;;;;;;4950177;29;20215;-60
2022/05/12 03:06:28;;;;;;;5.50;0.77;;;;;;;;;;4949169;29;20270;-60
2022/05/12 03:08:58;;;;;;;1.10;1.00;;;;;;;;;;4949401;28;20306;-60
2022/05/12 03:11:25;;;;;;;0.90;0.90;;;;;;;;;;4949365;29;20670;-61
2022/05/12 03:13:53;;;;;;;1.85;1.23;;;;;;;;;;4949458;29;20221;-61
2022/05/12 03:16:20;;;;;;;1.35;1.25;;;;;;;;;;4949552;29;20234;-61
2022/05/12 03:18:49;;;;;;;1.00;1.00;;;;;;;;;;4949424;29;20298;-61
2022/05/12 03:21:17;;;;;;;0.93;0.93;;;;;;;;;;4949428;29;20229;-60
2022/05/12 03:23:44;;;;;;;0.93;0.93;;;;;;;;;;4949927;29;20226;-61
2022/05/12 03:26:12;;;;;;;1.23;1.20;;;;;;;;;;4950704;28;20238;-61
2022/05/12 03:28:40;;;;;;;1.23;1.13;;;;;;;;;;4944680;29;20211;-61
2022/05/12 03:31:08;;;;;;;0.77;0.77;;;;;;;;;;4950133;29;20203;-61
2022/05/12 03:33:36;;;;;;;1.27;1.00;;;;;;;;;;4950589;29;20294;-60
2022/05/12 03:36:03;;;;;;;0.75;0.70;;;;;;;;;;4950288;29;20713;-60
2022/05/12 03:38:30;;;;;;;1.35;1.05;;;;;;;;;;4948922;29;20222;-60
2022/05/12 03:40:58;;;;;;;1.20;1.20;;;;;;;;;;4949123;29;20211;-60
2022/05/12 03:46:13;;;;;;;1.05;0.90;;;;;;;;;;4948615;29;20240;-60
2022/05/12 03:48:41;;;;;;;0.98;0.98;;;;;;;;;;4948661;29;20207;-60
2022/05/12 03:51:08;;;;;;;1.50;0.85;;;;;;;;;;4948203;29;20222;-60
2022/05/12 03:53:36;;;;;;;1.20;1.20;;;;;;;;;;4949596;29;20367;-60
2022/05/12 03:56:03;;;;;;;0.98;0.98;;;;;;;;;;4947916;28;20206;-60
2022/05/12 03:58:33;;;;;;;1.00;1.00;;;;;;;;;;4949092;29;20713;-60
2022/05/12 04:01:00;;;;;;;1.92;1.00;;;;;;;;;;4949291;29;20226;-61
2022/05/12 04:03:27;;;;;;;1.10;1.10;;;;;;;;;;4948439;29;20671;-60
2022/05/12 04:05:55;;;;;;;1.00;1.00;;;;;;;;;;4947478;28;20238;-60
2022/05/12 04:08:22;;;;;;;1.02;1.02;;;;;;;;;;4948579;29;20670;-60
2022/05/12 04:10:51;;;;;;;1.17;1.10;;;;;;;;;;4948458;29;20631;-60
2022/05/12 04:13:18;;;;;;;0.80;0.80;;;;;;;;;;4948076;29;20235;-60
2022/05/12 04:15:46;;;;;;;3.22;0.80;;;;;;;;;;4947403;29;20210;-60
2022/05/12 04:18:13;;;;;;;0.80;0.80;;;;;;;;;;4947480;29;20269;-60
2022/05/12 04:20:40;;;;;;;1.02;1.00;;;;;;;;;;4948404;29;20643;-60
2022/05/12 04:23:08;;;;;;;1.10;1.10;;;;;;;;;;4947622;29;20211;-59
2022/05/12 04:25:35;;;;;;;2.60;0.95;;;;;;;;;;4948032;29;20226;-59
2022/05/12 04:28:03;;;;;;;0.90;0.90;;;;;;;;;;4948489;28;20215;-61
2022/05/12 04:30:31;;;;;;;1.00;1.00;;;;;;;;;;4947714;29;20199;-61
2022/05/12 04:35:11;;;;;;;1.13;1.02;;;;;;;;;;4948332;28;20650;-60
2022/05/12 04:35:46;;;;;;;1.10;1.10;;;;;;;;;;4948198;29;20200;-61
2022/05/12 04:38:13;;;;;;;1.15;0.98;;;;;;;;;;4948233;29;20211;-61
2022/05/12 04:40:40;;;;;;;1.33;1.08;;;;;;;;;;4947638;29;20360;-61
2022/05/12 04:43:07;;;;;;;1.00;0.90;;;;;;;;;;4948709;29;20211;-61
2022/05/12 04:45:35;;;;;;;1.02;0.90;;;;;;;;;;4947525;29;20230;-63
2022/05/12 04:48:03;;;;;;;1.10;1.10;;;;;;;;;;4946026;29;20203;-60
2022/05/12 04:50:32;;;;;;;2.78;1.30;;;;;;;;;;4948988;29;20207;-60
2022/05/12 04:52:59;;;;;;;1.20;1.10;;;;;;;;;;4949706;28;20885;-60
2022/05/12 04:55:26;;;;;;;1.00;1.00;;;;;;;;;;4948666;29;20230;-60
2022/05/12 05:00:46;;;;;;;1.25;0.90;;;;;;;;;;4942357;29;20321;-61
2022/05/12 05:03:15;;;;;;;1.10;0.80;;;;;;;;;;4948136;28;20237;-60
2022/05/12 05:05:42;;;;;;;0.95;0.95;;;;;;;;;;4945621;28;20663;-60
2022/05/12 05:08:09;;;;;;;2.35;1.00;;;;;;;;;;4946117;29;20242;-60
2022/05/12 05:10:36;;;;;;;1.05;1.05;;;;;;;;;;4949411;29;20737;-61
2022/05/12 05:13:03;;;;;;;0.90;0.90;;;;;;;;;;4949515;29;20206;-60
2022/05/12 05:15:31;;;;;;;0.73;0.73;;;;;;;;;;4949263;28;20953;-61
2022/05/12 05:17:58;;;;;;;1.00;1.00;;;;;;;;;;4953219;29;20724;-61
2022/05/12 05:20:27;;;;;;;1.48;1.08;;;;;;;;;;4952729;29;20206;-61
2022/05/12 05:22:54;;;;;;;0.95;0.93;;;;;;;;;;4953382;29;20277;-61
2022/05/12 05:25:22;;;;;;;1.55;0.82;;;;;;;;;;4950988;29;20595;-62
2022/05/12 05:27:49;;;;;;;1.05;1.02;;;;;;;;;;4952839;28;20226;-62
2022/05/12 05:30:18;;;;;;;5.60;0.85;;;;;;;;;;4952016;29;20223;-61
2022/05/12 05:32:45;;;;;;;0.82;0.82;;;;;;;;;;4950357;28;20207;-62
2022/05/12 05:35:13;;;;;;;0.68;0.68;;;;;;;;;;4952262;29;20218;-62
2022/05/12 05:37:43;;;;;;;2.25;0.93;;;;;;;;;;4952198;29;20219;-61
2022/05/12 05:40:12;;;;;;;0.77;0.77;;;;;;;;;;4952418;29;20211;-61
2022/05/12 05:42:41;;;;;;;2.00;1.15;;;;;;;;;;4952439;29;20334;-61
2022/05/12 05:45:11;;;;;;;0.80;0.80;;;;;;;;;;4954407;28;20731;-61
2022/05/12 05:47:38;;;;;;;0.73;0.73;;;;;;;;;;4958060;28;20302;-61
2022/05/12 05:50:07;;;;;;;1.02;1.02;;;;;;;;;;4953187;28;20725;-62
2022/05/12 05:55:21;;;;;;;3.17;1.00;;;;;;;;;;4951107;29;20681;-61
2022/05/12 05:57:48;;;;;;;4.13;1.10;;;;;;;;;;4951215;28;20954;-61
2022/05/12 06:00:17;;;;;;;1.75;1.20;;;;;;;;;;4949711;29;20267;-60
2022/05/12 06:02:44;;;;;;;3.42;1.00;;;;;;;;;;4964750;28;20217;-62
2022/05/12 06:05:11;;;;;;;0.82;0.82;;;;;;;;;;4943279;28;20242;-62
2022/05/12 06:07:39;;;;;;;1.02;0.90;;;;;;;;;;4954482;28;20279;-62
2022/05/12 06:10:07;;;;;;;1.48;0.70;;;;;;;;;;4965166;28;20246;-61
2022/05/12 06:12:35;;;;;;;0.90;0.65;;;;;;;;;;4959040;28;20239;-62
2022/05/12 06:15:02;;;;;;;3.95;1.00;;;;;;;;;;4951945;29;20221;-62
2022/05/12 06:17:29;;;;;;;2.33;0.95;;;;;;;;;;4959956;28;20752;-60
2022/05/12 06:19:56;;;;;;;4.30;0.85;;;;;;;;;;4970444;28;20265;-60
2022/05/12 06:22:25;;;;;;;0.90;0.77;;;;;;;;;;4952034;29;20678;-61
2022/05/12 06:24:52;;;;;;;0.70;0.70;;;;;;;;;;4951789;29;20270;-61
2022/05/12 06:27:20;;;;;;;0.77;0.77;;;;;;;;;;4954051;28;20226;-61
2022/05/12 06:29:48;;;;;;;1.00;0.95;;;;;;;;;;4950552;29;20684;-61
2022/05/12 06:32:17;;;;;;;0.55;0.55;;;;;;;;;;4951775;29;20369;-61
2022/05/12 06:34:46;;;;;;;1.85;0.80;;;;;;;;;;4951812;29;20207;-61
2022/05/12 06:37:13;;;;;;;0.80;0.80;;;;;;;;;;4951548;29;20223;-61
2022/05/12 06:39:41;;;;;;;4.22;0.75;;;;;;;;;;4951634;29;20203;-62
2022/05/12 06:42:08;;;;;;;2.70;0.70;;;;;;;;;;4951762;29;20239;-62
2022/05/12 06:44:35;;;;;;;2.25;0.70;;;;;;;;;;4951275;29;20208;-62
2022/05/12 06:47:07;;;;;;;1.38;0.82;;;;;;;;;;4951532;29;20235;-60
2022/05/12 06:49:35;;;;;;;1.02;1.02;;;;;;;;;;4951197;29;20207;-61
2022/05/12 06:52:05;;;;;;;1.73;1.17;;;;;;;;;;4951748;29;20309;-61
2022/05/12 06:54:32;;;;;;;3.33;0.82;;;;;;;;;;4951225;29;20210;-61
2022/05/12 06:56:59;;;;;;;0.63;0.63;;;;;;;;;;4951394;28;20211;-61
2022/05/12 06:59:26;;;;;;;7.72;1.15;;;;;;;;;;4951156;29;20733;-61
2022/05/12 07:01:53;;;;;;;0.82;0.60;;;;;;;;;;4951414;29;20218;-62
2022/05/12 07:04:21;;;;;;;0.50;0.50;;;;;;;;;;4951244;29;20301;-62
2022/05/12 07:06:48;;;;;;;2.38;0.80;;;;;;;;;;4951354;29;20237;-62
2022/05/12 07:09:18;;;;;;;1.17;0.80;;;;;;;;;;4951086;28;20241;-60
2022/05/12 07:11:45;;;;;;;3.10;1.00;;;;;;;;;;4951573;28;20298;-61
2022/05/12 07:14:14;;;;;;;0.70;0.70;;;;;;;;;;4949862;29;20262;-61
2022/05/12 07:16:41;;;;;;;2.35;0.65;;;;;;;;;;4944324;29;20203;-61
2022/05/12 07:19:08;;;;;;;0.82;0.82;;;;;;;;;;4954976;28;20290;-60
2022/05/12 07:27:06;;;;;;;1.52;0.60;;;;;;;;;;4950662;28;20714;-60
2022/05/12 07:29:34;;;;;;;0.95;0.60;;;;;;;;;;4946709;29;20207;-60
2022/05/12 07:32:02;;;;;;;2.05;0.68;;;;;;;;;;4950368;29;20253;-58
2022/05/12 07:34:29;;;;;;;2.67;0.52;;;;;;;;;;4950540;29;20217;-58
2022/05/12 07:36:58;;;;;;;1.20;0.80;;;;;;;;;;4947590;29;20207;-58
2022/05/12 07:39:28;;;;;;;1.50;0.70;;;;;;;;;;4947968;28;20266;-59
2022/05/12 07:41:55;;;;;;;0.45;0.40;;;;;;;;;;4950076;29;20634;-58
2022/05/12 07:44:29;;;;;;;0.98;0.60;;;;;;;;;;4949118;29;20728;-61
2022/05/12 07:46:56;;;;;;;1.10;0.90;;;;;;;;;;4957164;28;20301;-59
2022/05/12 07:49:23;;;;;;;0.70;0.70;;;;;;;;;;4947661;29;20211;-60
2022/05/12 07:51:50;;;;;;;1.25;0.65;;;;;;;;;;4947904;29;20211;-60
2022/05/12 07:54:18;;;;;;;0.70;0.70;;;;;;;;;;4948547;29;20207;-60
2022/05/12 07:56:45;;;;;;;0.60;0.50;;;;;;;;;;4949721;28;20211;-60
2022/05/12 07:59:12;;;;;;;2.38;0.60;;;;;;;;;;4949554;29;20207;-60
2022/05/12 08:01:39;;;;;;;0.60;0.60;;;;;;;;;;4948549;29;20254;-59
2022/05/12 08:04:06;;;;;;;0.63;0.63;;;;;;;;;;4946962;29;20937;-60
2022/05/12 08:06:33;;;;;;;2.25;0.47;;;;;;;;;;4948385;29;20227;-58
2022/05/12 08:09:01;;;;;;;0.40;0.40;;;;;;;;;;4947058;29;20736;-57
2022/05/12 08:11:29;;;;;;;3.00;0.65;;;;;;;;;;4948741;29;20214;-60
2022/05/12 08:13:56;;;;;;;1.05;0.50;;;;;;;;;;4948441;29;20215;-58
2022/05/12 08:16:23;;;;;;;0.47;0.47;;;;;;;;;;4948800;29;20203;-58
2022/05/12 08:18:51;;;;;;;2.85;0.60;;;;;;;;;;4945576;29;20266;-57
2022/05/12 08:21:18;;;;;;;3.67;0.50;;;;;;;;;;4949481;29;20211;-57
2022/05/12 08:23:47;;;;;;;0.70;0.70;;;;;;;;;;4949301;29;20205;-58
2022/05/12 08:26:14;;;;;;;1.27;0.40;;;;;;;;;;4949302;28;20235;-58
2022/05/12 08:28:42;;;;;;;1.08;0.73;;;;;;;;;;4949674;29;20214;-57
2022/05/12 08:31:09;;;;;;;0.47;0.47;;;;;;;;;;4949007;29;20207;-57
2022/05/12 08:33:37;;;;;;;0.50;0.40;;;;;;;;;;4948621;29;20211;-58
2022/05/12 08:36:04;;;;;;;0.90;0.50;;;;;;;;;;4949382;29;20203;-58
2022/05/12 08:38:31;;;;;;;0.82;0.55;;;;;;;;;;4945091;29;20214;-58
2022/05/12 08:41:09;;;;;;;0.90;0.60;;;;;;;;;;4945449;29;20211;-58
2022/05/12 08:43:38;;;;;;;0.65;0.50;;;;;;;;;;4949405;29;20301;-58
2022/05/12 08:46:08;;;;;;;0.50;0.50;;;;;;;;;;4948713;29;20229;-59
2022/05/12 08:48:38;;;;;;;0.60;0.60;;;;;;;;;;4949320;29;20322;-58
2022/05/12 08:51:06;;;;;;;0.98;0.50;;;;;;;;;;4950027;28;20222;-58
2022/05/12 08:53:39;;;;;;;0.75;0.73;;;;;;;;;;4952830;29;20280;-58
2022/05/12 08:56:07;;;;;;;0.40;0.40;;;;;;;;;;4952547;28;20290;-58
2022/05/12 08:58:36;;;;;;;1.20;0.77;;;;;;;;;;4955008;28;20215;-58
2022/05/12 09:01:06;;;;;;;1.33;0.60;;;;;;;;;;4960823;28;20593;-58
2022/05/12 09:03:42;;;;;;;0.65;0.60;;;;;;;;;;4951545;29;20229;-61
2022/05/12 09:06:11;;;;;;;0.55;0.52;;;;;;;;;;4952182;29;20266;-58
2022/05/12 09:08:41;;;;;;;1.13;0.85;;;;;;;;;;4952650;29;20290;-58
2022/05/12 09:11:13;;;;;;;0.50;0.50;;;;;;;;;;4952788;29;20211;-58
2022/05/12 09:13:42;;;;;;;2.92;0.88;;;;;;;;;;4953255;29;20293;-59
2022/05/12 09:16:11;;;;;;;0.50;0.50;;;;;;;;;;4952085;29;20207;-58
2022/05/12 09:18:40;;;;;;;0.43;0.40;;;;;;;;;;4949585;29;20258;-59
2022/05/12 09:21:08;;;;;;;0.65;0.63;;;;;;;;;;4952625;29;20207;-59
2022/05/12 09:23:36;;;;;;;1.02;0.47;;;;;;;;;;4955018;28;20632;-59
2022/05/12 09:26:23;;;;;;;0.75;0.68;;;;;;;;;;4958819;28;20267;-59
2022/05/12 09:28:50;;;;;;;0.50;0.50;;;;;;;;;;4950573;29;20871;-59
2022/05/12 09:31:19;;;;;;;1.42;0.50;;;;;;;;;;4952138;29;20210;-59
2022/05/12 09:33:49;;;;;;;0.40;0.40;;;;;;;;;;4950803;29;20211;-59
2022/05/12 09:36:17;;;;;;;0.60;0.60;;;;;;;;;;4952246;29;20342;-59
2022/05/12 09:38:45;;;;;;;0.60;0.60;;;;;;;;;;4950025;29;20211;-59
2022/05/12 09:41:15;;;;;;;1.35;0.50;;;;;;;;;;4952132;29;20704;-59
2022/05/12 09:43:43;;;;;;;2.15;0.60;;;;;;;;;;4953799;28;20207;-59
2022/05/12 09:46:20;;;;;;;1.23;0.50;;;;;;;;;;4951719;29;20219;-59
2022/05/12 09:48:49;;;;;;;2.05;0.52;;;;;;;;;;4951868;29;20291;-59
2022/05/12 09:51:29;;;;;;;1.13;0.80;;;;;;;;;;4952071;29;20219;-59
2022/05/12 09:54:14;;;;;;;0.52;0.50;;;;;;;;;;4949927;29;20215;-59
2022/05/12 09:56:41;;;;;;;0.60;0.60;;;;;;;;;;4950186;28;20313;-59
2022/05/12 09:59:19;;;;;;;0.50;0.50;;;;;;;;;;4957544;28;20222;-59
2022/05/12 10:01:53;;;;;;;0.40;0.40;;;;;;;;;;4951301;29;20270;-59
2022/05/12 10:09:56;;;;;;;0.52;0.50;;;;;;;;;;4939476;29;20713;-59
2022/05/12 10:12:24;;;;;;;1.10;0.40;;;;;;;;;;4951831;29;20211;-60
2022/05/12 10:14:54;;;;;;;1.45;0.47;;;;;;;;;;4951353;29;20313;-59
2022/05/12 10:17:26;;;;;;;0.50;0.50;;;;;;;;;;4951083;29;20214;-59
2022/05/12 10:19:54;;;;;;;0.40;0.40;;;;;;;;;;4948186;29;20203;-59
2022/05/12 10:22:25;;;;;;;0.68;0.52;;;;;;;;;;4950809;29;20675;-60
2022/05/12 10:24:59;;;;;;;0.68;0.68;;;;;;;;;;4951680;29;20917;-59
2022/05/12 10:27:40;;;;;;;1.17;0.57;;;;;;;;;;4950912;28;20388;-66
2022/05/12 10:30:16;;;;;;;0.43;0.40;;;;;;;;;;4950556;29;20207;-64
2022/05/12 10:32:49;;;;;;;0.93;0.40;;;;;;;;;;4951409;29;20211;-65
2022/05/12 10:35:22;;;;;;;0.55;0.55;;;;;;;;;;4951768;29;20289;-64
2022/05/12 10:37:54;;;;;;;1.48;0.40;;;;;;;;;;4951254;29;20299;-59
2022/05/12 10:40:26;;;;;;;1.35;0.45;;;;;;;;;;4951073;29;20657;-59
2022/05/12 10:42:58;;;;;;;2.05;0.50;;;;;;;;;;4951769;29;20211;-59
2022/05/12 10:45:26;;;;;;;0.40;0.40;;;;;;;;;;4950797;29;20266;-60
2022/05/12 10:48:08;;;;;;;2.55;0.43;;;;;;;;;;4951319;29;20310;-60
2022/05/12 10:50:39;;;;;;;2.95;0.50;;;;;;;;;;4951203;29;20265;-59
2022/05/12 10:53:09;;;;;;;1.35;0.45;;;;;;;;;;4950871;29;20214;-60
2022/05/12 10:55:41;;;;;;;0.60;0.60;;;;;;;;;;4950780;29;20203;-60
2022/05/12 10:58:20;;;;;;;0.60;0.60;;;;;;;;;;4946216;29;20646;-60
2022/05/12 11:00:55;;;;;;;0.50;0.50;;;;;;;;;;4950695;29;20203;-59
2022/05/12 11:03:24;;;;;;;1.60;0.80;;;;;;;;;;4950812;29;20214;-58
2022/05/12 11:05:55;;;;;;;0.60;0.50;;;;;;;;;;4949836;28;20215;-59
2022/05/12 11:08:24;;;;;;;1.17;0.68;;;;;;;;;;4953667;28;20732;-60
2022/05/12 11:10:53;;;;;;;0.40;0.40;;;;;;;;;;4952309;28;20212;-60
2022/05/12 11:13:23;;;;;;;2.58;0.82;;;;;;;;;;4951216;29;20223;-61
2022/05/12 11:15:54;;;;;;;1.63;0.40;;;;;;;;;;4948850;29;20203;-61
2022/05/12 11:18:24;;;;;;;0.40;0.40;;;;;;;;;;4948545;29;20214;-61
2022/05/12 11:21:00;;;;;;;0.57;0.40;;;;;;;;;;4965700;28;20210;-61
2022/05/12 11:23:34;;;;;;;2.17;0.50;;;;;;;;;;4945194;29;20674;-61
2022/05/12 11:26:04;;;;;;;0.45;0.45;;;;;;;;;;4949729;28;20362;-60
2022/05/12 11:31:24;;;;;;;1.30;0.40;;;;;;;;;;4946775;28;20237;-59
2022/05/12 11:33:52;;;;;;;2.83;0.65;;;;;;;;;;4940596;28;20203;-58
2022/05/12 11:36:20;;;;;;;0.40;0.40;;;;;;;;;;4942824;29;20211;-59
2022/05/12 11:38:52;;;;;;;0.60;0.60;;;;;;;;;;4944889;28;20700;-58
2022/05/12 11:41:37;;;;;;;0.38;0.38;;;;;;;;;;4945511;28;20277;-58
2022/05/12 11:44:26;;;;;;;0.93;0.50;;;;;;;;;;4943582;28;20210;-59
2022/05/12 11:47:00;;;;;;;0.75;0.50;;;;;;;;;;4951530;28;20222;-58
2022/05/12 11:49:34;;;;;;;0.60;0.60;;;;;;;;;;4945886;29;20214;-58
2022/05/12 11:52:11;;;;;;;3.50;0.63;;;;;;;;;;4952049;28;20210;-58
2022/05/12 11:54:40;;;;;;;0.52;0.50;;;;;;;;;;4950381;28;20211;-59
2022/05/12 11:57:21;;;;;;;0.40;0.40;;;;;;;;;;4946555;28;20219;-58
2022/05/12 11:59:49;;;;;;;0.50;0.50;;;;;;;;;;4956825;28;20276;-59
2022/05/12 12:02:31;;;;;;;1.70;0.40;;;;;;;;;;4943911;28;20203;-58
2022/05/12 12:04:58;;;;;;;0.63;0.63;;;;;;;;;;4942663;28;20210;-59
2022/05/12 12:07:47;;;;;;;0.30;0.30;;;;;;;;;;4948165;28;20327;-58
2022/05/12 12:10:31;;;;;;;0.63;0.40;;;;;;;;;;4940493;29;20207;-58
2022/05/12 12:13:08;;;;;;;0.50;0.50;;;;;;;;;;4944271;29;20589;-58
2022/05/12 12:16:02;;;;;;;0.40;0.40;;;;;;;;;;4946329;29;20213;-59
2022/05/12 12:18:57;;;;;;;0.40;0.40;;;;;;;;;;4913934;29;20216;-59
2022/05/12 12:21:54;;;;;;;0.50;0.50;;;;;;;;;;4945118;29;20716;-59
2022/05/12 12:24:28;;;;;;;0.63;0.50;;;;;;;;;;4944268;28;20663;-58
2022/05/12 12:27:16;;;;;;;2.83;0.40;;;;;;;;;;4938690;28;20218;-57
2022/05/12 12:29:45;;;;;;;0.70;0.65;;;;;;;;;;4946219;29;20211;-58
2022/05/12 12:32:29;;;;;;;0.47;0.40;;;;;;;;;;4946027;29;20234;-58
2022/05/12 12:34:57;;;;;;;1.60;0.80;;;;;;;;;;4945325;28;20282;-58
2022/05/12 12:37:44;;;;;;;0.60;0.40;;;;;;;;;;4943663;28;20215;-58
2022/05/12 12:40:41;;;;;;;0.52;0.52;;;;;;;;;;4934209;29;20207;-58
2022/05/12 12:43:16;;;;;;;1.52;0.45;;;;;;;;;;4886739;29;20277;-60
2022/05/12 12:45:47;;;;;;;1.25;0.80;;;;;;;;;;4932953;29;20210;-57
2022/05/12 12:48:16;;;;;;;1.65;0.50;;;;;;;;;;4945447;29;20234;-60
2022/05/12 12:50:46;;;;;;;0.35;0.35;;;;;;;;;;4945684;29;20262;-60
2022/05/12 12:53:14;;;;;;;0.95;0.90;;;;;;;;;;4946556;28;20270;-58
2022/05/12 12:58:37;;;;;;;0.50;0.50;;;;;;;;;;4945163;29;20301;-60
2022/05/12 13:01:06;;;;;;;0.55;0.55;;;;;;;;;;4945274;29;20217;-60
2022/05/12 13:03:34;;;;;;;0.70;0.32;;;;;;;;;;4945127;29;20255;-60
2022/05/12 13:06:09;;;;;;;1.27;0.82;;;;;;;;;;4957227;28;20218;-58
2022/05/12 13:08:36;;;;;;;0.40;0.40;;;;;;;;;;4948008;28;20289;-58
2022/05/12 13:11:05;;;;;;;0.43;0.43;;;;;;;;;;4948601;28;20266;-57
2022/05/12 13:13:32;;;;;;;0.60;0.60;;;;;;;;;;4943600;29;20261;-57
2022/05/12 13:16:02;;;;;;;1.95;1.00;;;;;;;;;;4939337;29;20804;-57
2022/05/12 13:18:31;;;;;;;1.70;0.70;;;;;;;;;;4944808;28;20258;-59
2022/05/12 13:20:59;;;;;;;0.60;0.60;;;;;;;;;;4940592;28;20298;-57
2022/05/12 13:23:27;;;;;;;1.35;0.60;;;;;;;;;;4962212;28;20913;-59
2022/05/12 13:25:54;;;;;;;2.28;0.50;;;;;;;;;;4955335;28;20311;-59
2022/05/12 13:28:23;;;;;;;2.15;0.60;;;;;;;;;;4943486;28;20227;-59
2022/05/12 13:30:51;;;;;;;0.52;0.45;;;;;;;;;;4957061;28;20313;-60
2022/05/12 13:33:23;;;;;;;1.80;0.60;;;;;;;;;;4944234;29;20243;-60
2022/05/12 13:35:57;;;;;;;1.88;0.50;;;;;;;;;;4941055;28;20297;-59
2022/05/12 13:38:24;;;;;;;1.95;0.30;;;;;;;;;;4953136;28;20278;-60
2022/05/12 13:40:53;;;;;;;0.47;0.30;;;;;;;;;;4952126;28;20642;-59
2022/05/12 13:43:22;;;;;;;1.20;0.40;;;;;;;;;;4954598;28;20921;-59
2022/05/12 13:46:00;;;;;;;1.23;0.52;;;;;;;;;;4960005;28;20211;-59
2022/05/12 13:48:28;;;;;;;1.63;0.60;;;;;;;;;;4946645;29;20235;-58
2022/05/12 13:50:56;;;;;;;1.65;0.52;;;;;;;;;;4948047;28;20309;-59
2022/05/12 13:53:30;;;;;;;1.05;0.30;;;;;;;;;;4947642;28;20206;-58
2022/05/12 13:56:08;;;;;;;0.40;0.40;;;;;;;;;;4947180;28;20216;-59
2022/05/12 13:58:44;;;;;;;0.40;0.40;;;;;;;;;;4948562;29;20210;-58
2022/05/12 14:01:11;;;;;;;0.55;0.55;;;;;;;;;;4944122;29;20728;-58
2022/05/12 14:03:40;;;;;;;1.17;0.50;;;;;;;;;;4950178;28;20304;-59
2022/05/12 14:06:12;;;;;;;0.98;0.60;;;;;;;;;;4946991;29;20214;-59
2022/05/12 14:08:39;;;;;;;1.58;0.60;;;;;;;;;;4947409;29;20997;-62
2022/05/12 14:11:08;;;;;;;0.95;0.40;;;;;;;;;;4946852;28;20266;-59
2022/05/12 14:19:16;;;;;;;0.55;0.40;;;;;;;;;;4946951;29;20528;-61
2022/05/12 14:21:46;;;;;;;0.80;0.38;;;;;;;;;;4947140;28;20290;-58
2022/05/12 14:24:13;;;;;;;1.13;0.65;;;;;;;;;;4954954;28;20233;-58
2022/05/12 14:26:41;;;;;;;1.35;0.47;;;;;;;;;;4946280;28;20572;-58
2022/05/12 14:29:08;;;;;;;1.77;0.50;;;;;;;;;;4945935;28;20243;-58
2022/05/12 14:31:36;;;;;;;1.58;0.30;;;;;;;;;;4945333;28;20215;-58
2022/05/12 14:34:03;;;;;;;0.50;0.50;;;;;;;;;;4943059;28;20681;-60
2022/05/12 14:36:32;;;;;;;1.13;0.60;;;;;;;;;;4946109;29;20270;-58
2022/05/12 14:38:59;;;;;;;0.45;0.45;;;;;;;;;;4945344;28;20704;-59
2022/05/12 14:41:26;;;;;;;0.35;0.35;;;;;;;;;;4946538;29;20595;-59
2022/05/12 14:43:53;;;;;;;0.30;0.30;;;;;;;;;;4945324;28;20270;-58
2022/05/12 14:46:21;;;;;;;1.45;0.68;;;;;;;;;;4944486;28;20321;-59
2022/05/12 14:48:49;;;;;;;0.55;0.55;;;;;;;;;;4951901;28;20234;-59
2022/05/12 14:51:17;;;;;;;1.08;0.50;;;;;;;;;;4935355;29;20215;-59
2022/05/12 14:53:46;;;;;;;1.17;0.50;;;;;;;;;;4947012;29;20684;-59
2022/05/12 14:56:13;;;;;;;0.40;0.40;;;;;;;;;;4946099;28;20282;-59
2022/05/12 14:58:40;;;;;;;1.02;0.40;;;;;;;;;;4946527;29;20215;-59
2022/05/12 15:01:09;;;;;;;0.30;0.30;;;;;;;;;;4946040;29;20211;-59
2022/05/12 15:03:36;;;;;;;0.77;0.50;;;;;;;;;;4946068;28;20270;-59
2022/05/12 15:06:03;;;;;;;0.40;0.40;;;;;;;;;;4947012;29;20211;-58
2022/05/12 15:08:30;;;;;;;2.25;0.40;;;;;;;;;;4945282;29;20243;-58
2022/05/12 15:10:59;;;;;;;1.35;0.30;;;;;;;;;;4946535;29;20274;-57
2022/05/12 15:13:26;;;;;;;0.65;0.32;;;;;;;;;;4944964;29;20203;-58
2022/05/12 15:15:54;;;;;;;0.80;0.40;;;;;;;;;;4946386;29;20700;-59
2022/05/12 15:18:21;;;;;;;0.77;0.40;;;;;;;;;;4946532;29;20291;-58
2022/05/12 15:20:48;;;;;;;0.70;0.38;;;;;;;;;;4946779;29;20285;-58
2022/05/12 15:23:15;;;;;;;2.05;0.30;;;;;;;;;;4946441;29;20268;-58
2022/05/12 15:25:44;;;;;;;0.45;0.45;;;;;;;;;;4945968;28;20203;-58
2022/05/12 15:28:17;;;;;;;0.32;0.32;;;;;;;;;;4946765;29;20223;-58